createdAt,value
2018-02-06T00:01:18.849Z,-1.21
2018-02-06T00:03:44.763Z,-1.26
2018-02-06T00:06:10.569Z,-1.30
2018-02-06T00:08:36.427Z,-1.40
2018-02-06T00:11:02.628Z,-1.42
2018-02-06T00:13:28.406Z,-1.43
2018-02-06T00:15:54.194Z,-1.39
2018-02-06T00:18:19.978Z,-1.23
2018-02-06T00:20:45.756Z,-1.19
2018-02-06T00:23:11.550Z,-1.23
2018-02-06T00:25:37.346Z,-1.24
2018-02-06T00:28:03.110Z,-1.18
2018-02-06T00:30:28.995Z,-1.12
2018-02-06T00:32:54.772Z,-1.13
2018-02-06T00:35:20.565Z,-1.11
2018-02-06T00:37:46.462Z,-1.17
2018-02-06T00:40:12.249Z,-1.19
2018-02-06T00:42:38.017Z,-1.22
2018-02-06T00:45:03.794Z,-1.18
2018-02-06T00:47:29.762Z,-1.17
2018-02-06T00:49:55.550Z,-1.16
2018-02-06T00:52:21.323Z,-1.14
2018-02-06T00:54:47.098Z,-1.15
2018-02-06T00:57:12.915Z,-1.17
2018-02-06T00:59:38.708Z,-1.24
2018-02-06T01:02:11.483Z,-1.37
2018-02-06T01:04:37.291Z,-1.44
2018-02-06T01:07:03.213Z,-1.49
2018-02-06T01:09:36.005Z,-1.48
2018-02-06T01:12:01.797Z,-1.32
2018-02-06T01:14:27.608Z,-1.37
2018-02-06T01:16:53.400Z,-1.34
2018-02-06T01:19:19.170Z,-1.29
2018-02-06T01:21:44.964Z,-1.22
2018-02-06T01:24:10.725Z,-1.18
2018-02-06T01:26:36.494Z,-1.24
2018-02-06T01:29:02.617Z,-1.30
2018-02-06T01:31:28.398Z,-1.29
2018-02-06T01:33:54.174Z,-1.23
2018-02-06T01:36:20.292Z,-1.36
2018-02-06T01:38:46.069Z,-1.45
2018-02-06T01:41:11.858Z,-1.39
2018-02-06T01:43:37.630Z,-1.39
2018-02-06T01:46:03.421Z,-1.37
2018-02-06T01:48:29.194Z,-1.47
2018-02-06T01:50:54.982Z,-1.51
2018-02-06T01:53:20.774Z,-1.64
2018-02-06T01:55:46.600Z,-1.65
2018-02-06T01:58:12.333Z,-1.67
2018-02-06T02:00:38.142Z,-1.69
2018-02-06T02:03:03.917Z,-1.74
2018-02-06T02:05:29.706Z,-1.78
2018-02-06T02:07:55.501Z,-1.83
2018-02-06T02:10:21.291Z,-1.85
2018-02-06T02:12:47.056Z,-1.81
2018-02-06T02:15:12.863Z,-1.81
2018-02-06T02:17:38.692Z,-1.89
2018-02-06T02:20:04.474Z,-1.79
2018-02-06T02:22:30.259Z,-1.78
2018-02-06T02:24:56.074Z,-1.89
2018-02-06T02:27:21.886Z,-1.88
2018-02-06T02:29:47.707Z,-1.85
2018-02-06T02:32:13.604Z,-1.98
2018-02-06T02:34:39.395Z,-2.05
2018-02-06T02:37:05.174Z,-2.04
2018-02-06T02:39:30.974Z,-1.96
2018-02-06T04:38:32.943Z,-2.21
2018-02-06T04:40:59.208Z,-2.18
2018-02-06T04:43:24.991Z,-2.26
2018-02-06T04:45:50.824Z,-2.21
2018-02-06T04:48:16.646Z,-2.15
2018-02-06T04:50:42.458Z,-2.20
2018-02-06T04:53:08.262Z,-2.17
2018-02-06T04:55:34.415Z,-2.17
2018-02-06T04:58:00.928Z,-2.17
2018-02-06T05:00:26.717Z,-2.22
2018-02-06T05:02:52.525Z,-2.23
2018-02-06T05:05:18.320Z,-2.28
2018-02-06T05:07:44.135Z,-2.45
2018-02-06T05:10:09.920Z,-2.34
2018-02-06T05:12:35.704Z,-2.44
2018-02-06T05:15:01.515Z,-2.44
2018-02-06T05:17:27.312Z,-2.34
2018-02-06T05:19:53.201Z,-2.30
2018-02-06T05:22:19.015Z,-2.36
2018-02-06T05:24:44.844Z,-2.35
2018-02-06T05:27:10.603Z,-2.36
2018-02-06T05:29:36.414Z,-2.37
2018-02-06T05:32:02.220Z,-2.41
2018-02-06T05:34:28.030Z,-2.36
2018-02-06T05:36:53.925Z,-2.30
2018-02-06T05:39:19.702Z,-2.33
2018-02-06T05:41:45.487Z,-2.48
2018-02-06T05:44:11.506Z,-2.59
2018-02-06T05:46:37.310Z,-2.63
2018-02-06T05:49:03.099Z,-2.68
2018-02-06T05:51:32.027Z,-2.68
2018-02-06T05:53:57.884Z,-2.65
2018-02-06T05:56:23.679Z,-2.72
2018-02-06T05:58:49.474Z,-2.70
2018-02-06T06:01:15.260Z,-2.71
2018-02-06T06:03:41.044Z,-2.76
2018-02-06T06:06:06.836Z,-2.81
2018-02-06T06:08:32.643Z,-2.58
2018-02-06T06:10:58.678Z,-2.58
2018-02-06T06:13:24.491Z,-2.54
2018-02-06T06:15:50.284Z,-2.58
2018-02-06T06:18:16.077Z,-2.54
2018-02-06T06:20:41.944Z,-2.59
2018-02-06T06:23:07.747Z,-2.62
2018-02-06T06:25:33.551Z,-2.69
2018-02-06T06:27:59.342Z,-2.77
2018-02-06T06:30:25.134Z,-2.73
2018-02-06T06:32:50.967Z,-2.70
2018-02-06T06:35:16.764Z,-2.77
2018-02-06T06:37:42.558Z,-2.71
2018-02-06T06:40:08.372Z,-2.72
2018-02-06T06:42:34.203Z,-2.78
2018-02-06T06:45:00.018Z,-2.79
2018-02-06T06:47:25.812Z,-2.75
2018-02-06T06:49:51.600Z,-2.72
2018-02-06T06:52:17.384Z,-2.76
2018-02-06T06:54:43.410Z,-2.79
2018-02-06T06:57:09.199Z,-2.83
2018-02-06T06:59:35.002Z,-2.80
2018-02-06T07:02:00.802Z,-2.72
2018-02-06T07:04:26.603Z,-2.73
2018-02-06T07:06:52.408Z,-2.75
2018-02-06T07:09:18.201Z,-2.59
2018-02-06T07:11:43.983Z,-2.61
2018-02-06T07:14:09.827Z,-2.52
2018-02-06T07:16:35.617Z,-2.61
2018-02-06T07:19:01.398Z,-2.65
2018-02-06T07:21:27.243Z,-2.60
2018-02-06T07:23:53.035Z,-2.66
2018-02-06T07:26:18.840Z,-2.75
2018-02-06T07:28:44.736Z,-2.72
2018-02-06T07:31:10.518Z,-2.73
2018-02-06T07:33:36.312Z,-2.75
2018-02-06T07:36:02.125Z,-2.67
2018-02-06T07:38:27.923Z,-2.63
2018-02-06T07:40:53.734Z,-2.53
2018-02-06T07:43:19.534Z,-2.52
2018-02-06T07:45:45.319Z,-2.70
2018-02-06T07:48:11.144Z,-2.73
2018-02-06T07:50:36.923Z,-2.64
2018-02-06T07:53:02.707Z,-2.67
2018-02-06T07:55:28.491Z,-2.66
2018-02-06T07:57:54.476Z,-2.61
2018-02-06T08:00:20.315Z,-2.58
2018-02-06T08:02:46.114Z,-2.60
2018-02-06T08:05:11.927Z,-2.62
2018-02-06T08:07:37.730Z,-2.52
2018-02-06T08:10:03.534Z,-2.48
2018-02-06T08:12:29.907Z,-2.53
2018-02-06T08:14:55.706Z,-2.44
2018-02-06T08:17:21.638Z,-2.36
2018-02-06T08:19:47.788Z,-2.44
2018-02-06T08:22:14.537Z,-2.32
2018-02-06T08:24:40.375Z,-2.23
2018-02-06T08:27:06.498Z,-2.29
2018-02-06T08:29:32.295Z,-2.25
2018-02-06T08:31:58.799Z,-2.21
2018-02-06T08:34:24.627Z,-2.00
2018-02-06T08:36:50.714Z,-1.95
2018-02-06T08:39:16.568Z,-1.99
2018-02-06T08:41:42.354Z,-2.02
2018-02-06T08:44:08.156Z,-2.00
2018-02-06T08:46:33.951Z,-1.97
2018-02-06T08:48:59.782Z,-1.92
2018-02-06T08:51:25.834Z,-1.98
2018-02-06T08:53:51.636Z,-1.89
2018-02-06T08:56:17.605Z,-1.89
2018-02-06T08:58:43.384Z,-1.87
2018-02-06T09:01:09.181Z,-1.78
2018-02-06T09:03:35.267Z,-1.67
2018-02-06T09:06:01.371Z,-1.59
2018-02-06T09:08:27.166Z,-1.59
2018-02-06T09:10:52.980Z,-1.56
2018-02-06T09:13:18.818Z,-1.61
2018-02-06T09:15:44.963Z,-1.69
2018-02-06T09:18:10.755Z,-1.63
2018-02-06T09:20:36.538Z,-1.62
2018-02-06T09:23:02.560Z,-1.67
2018-02-06T09:25:28.415Z,-1.62
2018-02-06T09:27:54.242Z,-1.41
2018-02-06T09:30:20.043Z,-1.32
2018-02-06T09:32:46.319Z,-1.32
2018-02-06T09:35:12.122Z,-0.88
2018-02-06T09:37:38.250Z,-1.05
2018-02-06T09:40:04.222Z,-1.01
2018-02-06T09:42:30.302Z,-1.04
2018-02-06T09:44:56.138Z,-0.87
2018-02-06T09:47:22.215Z,-1.04
2018-02-06T09:49:48.092Z,-1.03
2018-02-06T09:52:14.271Z,-0.90
2018-02-06T09:54:40.104Z,-0.61
2018-02-06T09:57:05.882Z,-0.62
2018-02-06T09:59:31.702Z,-0.77
2018-02-06T10:01:57.629Z,-0.79
2018-02-06T10:04:23.530Z,-0.82
2018-02-06T10:06:49.331Z,-0.71
2018-02-06T10:09:15.321Z,-0.47
2018-02-06T10:11:41.546Z,-0.46
2018-02-06T10:14:07.578Z,-0.44
2018-02-06T10:16:33.362Z,-0.39
2018-02-06T10:18:59.188Z,-0.26
2018-02-06T10:21:25.245Z,0.47
2018-02-06T10:23:51.030Z,0.49
2018-02-06T10:26:16.846Z,0.65
2018-02-06T10:28:42.635Z,0.57
2018-02-06T10:31:08.420Z,0.20
2018-02-06T10:33:34.240Z,0.11
2018-02-06T10:36:00.071Z,-0.05
2018-02-06T10:38:25.858Z,0.13
2018-02-06T10:40:52.255Z,0.11
2018-02-06T10:43:18.082Z,0.08
2018-02-06T10:45:43.850Z,0.13
2018-02-06T10:48:09.637Z,0.13
2018-02-06T10:50:35.438Z,0.40
2018-02-06T10:53:01.247Z,0.26
2018-02-06T10:55:27.899Z,0.32
2018-02-06T10:57:53.699Z,0.31
2018-02-06T11:00:19.494Z,0.43
2018-02-06T11:02:45.325Z,0.45
2018-02-06T11:05:11.110Z,0.34
2018-02-06T11:07:36.935Z,0.23
2018-02-06T11:10:02.772Z,0.15
2018-02-06T11:12:28.550Z,0.30
2018-02-06T11:14:54.328Z,0.34
2018-02-06T11:17:20.125Z,0.37
2018-02-06T11:19:45.982Z,0.27
2018-02-06T11:22:12.050Z,0.32
2018-02-06T11:24:38.284Z,0.28
2018-02-06T11:27:04.107Z,1.32
2018-02-06T11:29:29.906Z,1.40
2018-02-06T11:31:55.761Z,0.80
2018-02-06T11:34:21.569Z,0.75
2018-02-06T11:36:47.398Z,0.67
2018-02-06T11:39:13.182Z,0.55
2018-02-06T11:41:38.990Z,0.67
2018-02-06T11:44:05.262Z,0.67
2018-02-06T11:46:31.050Z,0.70
2018-02-06T11:48:56.842Z,0.57
2018-02-06T11:51:22.651Z,0.73
2018-02-06T11:53:48.434Z,0.75
2018-02-06T11:56:14.220Z,0.78
2018-02-06T11:58:40.027Z,0.59
2018-02-06T12:01:05.847Z,1.03
2018-02-06T12:03:31.657Z,1.11
2018-02-06T12:05:57.425Z,1.27
2018-02-06T12:08:23.208Z,1.50
2018-02-06T12:10:49.024Z,1.71
2018-02-06T12:13:14.807Z,1.91
2018-02-06T12:15:40.583Z,1.68
2018-02-06T12:18:06.366Z,1.88
2018-02-06T12:20:32.160Z,1.87
2018-02-06T12:22:57.966Z,1.43
2018-02-06T12:25:23.744Z,1.28
2018-02-06T12:27:49.535Z,1.20
2018-02-06T12:30:15.331Z,1.17
2018-02-06T12:32:41.459Z,1.32
2018-02-06T12:35:07.266Z,1.24
2018-02-06T12:37:33.055Z,1.27
2018-02-06T12:39:58.854Z,1.47
2018-02-06T12:42:24.686Z,1.24
2018-02-06T12:44:50.492Z,1.45
2018-02-06T12:47:16.287Z,1.75
2018-02-06T12:49:42.096Z,1.75
2018-02-06T12:52:08.116Z,1.87
2018-02-06T12:54:33.894Z,1.78
2018-02-06T12:56:59.682Z,2.08
2018-02-06T12:59:25.474Z,1.97
2018-02-06T13:01:51.253Z,3.11
2018-02-06T13:04:17.034Z,3.14
2018-02-06T13:06:43.038Z,3.75
2018-02-06T13:09:08.841Z,2.92
2018-02-06T13:11:34.618Z,3.12
2018-02-06T13:14:00.820Z,3.29
2018-02-06T13:16:26.641Z,3.45
2018-02-06T13:18:52.426Z,3.04
2018-02-06T13:21:18.336Z,2.70
2018-02-06T13:23:44.118Z,3.30
2018-02-06T13:26:09.906Z,3.08
2018-02-06T13:28:35.990Z,3.43
2018-02-06T13:31:01.784Z,3.29
2018-02-06T13:33:27.563Z,3.49
2018-02-06T13:35:53.362Z,3.97
2018-02-06T13:38:19.134Z,4.43
2018-02-06T13:40:44.924Z,4.23
2018-02-06T13:43:10.705Z,4.18
2018-02-06T13:45:36.490Z,3.65
2018-02-06T13:48:02.347Z,4.92
2018-02-06T13:50:28.482Z,4.33
2018-02-06T13:52:54.310Z,3.75
2018-02-06T13:55:20.091Z,3.74
2018-02-06T13:57:48.792Z,3.96
2018-02-06T14:00:14.748Z,3.86
2018-02-06T14:02:40.599Z,4.01
2018-02-06T14:05:06.399Z,3.50
2018-02-06T14:07:32.215Z,3.29
2018-02-06T14:09:58.016Z,3.57
2018-02-06T14:12:23.828Z,4.10
2018-02-06T14:14:50.509Z,3.66
2018-02-06T14:17:16.286Z,3.69
2018-02-06T14:19:42.079Z,3.05
2018-02-06T14:22:07.942Z,2.47
2018-02-06T14:24:33.784Z,2.46
2018-02-06T14:26:59.569Z,2.43
2018-02-06T14:29:25.398Z,2.19
2018-02-06T14:31:51.185Z,1.95
2018-02-06T14:34:16.986Z,1.97
2018-02-06T14:36:42.785Z,1.61
2018-02-06T14:39:08.573Z,1.36
2018-02-06T14:41:34.369Z,1.37
2018-02-06T14:44:00.203Z,1.34
2018-02-06T14:46:25.998Z,1.23
2018-02-06T14:48:51.906Z,0.84
2018-02-06T14:51:17.720Z,1.08
2018-02-06T14:53:43.525Z,1.23
2018-02-06T14:56:09.380Z,1.20
2018-02-06T14:58:35.182Z,0.99
2018-02-06T15:01:00.972Z,0.99
2018-02-06T15:03:26.774Z,1.01
2018-02-06T15:05:52.578Z,1.06
2018-02-06T15:08:18.467Z,1.11
2018-02-06T15:10:44.235Z,1.04
2018-02-06T15:13:10.285Z,0.85
2018-02-06T15:15:36.064Z,4.17
2018-02-06T15:18:01.855Z,4.58
2018-02-06T15:20:27.684Z,5.35
2018-02-06T15:22:53.477Z,6.23
2018-02-06T15:25:19.282Z,6.47
2018-02-06T15:27:45.402Z,6.37
2018-02-06T15:30:11.221Z,5.85
2018-02-06T15:32:37.004Z,4.34
2018-02-06T15:35:03.216Z,4.87
2018-02-06T15:37:29.006Z,5.04
2018-02-06T15:39:54.807Z,4.99
2018-02-06T15:42:20.630Z,5.38
2018-02-06T15:44:46.420Z,5.50
2018-02-06T15:47:12.214Z,5.34
2018-02-06T15:49:38.026Z,5.21
2018-02-06T15:52:03.809Z,5.53
2018-02-06T15:54:29.596Z,5.33
2018-02-06T15:56:55.407Z,4.75
2018-02-06T15:59:21.215Z,4.16
2018-02-06T16:01:47.006Z,4.16
2018-02-06T16:04:12.815Z,4.52
2018-02-06T16:06:38.603Z,3.85
2018-02-06T16:09:04.409Z,3.41
2018-02-06T16:11:30.220Z,3.96
2018-02-06T16:13:56.010Z,4.22
2018-02-06T16:16:21.788Z,4.34
2018-02-06T16:18:47.890Z,4.46
2018-02-06T16:21:13.715Z,4.20
2018-02-06T16:23:39.505Z,3.55
2018-02-06T16:26:05.364Z,3.56
2018-02-06T16:28:31.124Z,3.53
2018-02-06T16:30:56.908Z,3.93
2018-02-06T16:33:22.974Z,4.70
2018-02-06T16:35:48.760Z,4.50
2018-02-06T16:38:14.550Z,3.93
2018-02-06T16:40:40.352Z,2.94
2018-02-06T16:43:06.145Z,3.47
2018-02-06T16:45:31.937Z,3.48
2018-02-06T16:47:57.747Z,1.71
2018-02-06T16:50:23.567Z,0.77
2018-02-06T16:52:49.395Z,0.55
2018-02-06T16:55:15.215Z,0.28
2018-02-06T16:57:41.011Z,0.15
2018-02-06T17:00:06.868Z,-0.01
2018-02-06T17:02:39.039Z,-0.08
2018-02-06T17:05:04.820Z,-0.16
2018-02-06T17:07:30.603Z,-0.28
2018-02-06T17:09:56.402Z,-0.41
2018-02-06T17:12:22.180Z,-0.46
2018-02-06T17:14:47.978Z,-0.53
2018-02-06T17:17:14.180Z,-0.61
2018-02-06T17:19:39.964Z,-0.69
2018-02-06T17:22:05.841Z,-0.81
2018-02-06T17:24:31.603Z,-0.80
2018-02-06T17:26:57.382Z,-0.72
2018-02-06T17:29:23.173Z,-0.80
2018-02-06T17:31:48.986Z,-0.76
2018-02-06T17:34:14.771Z,-0.81
2018-02-06T17:36:40.554Z,-0.87
2018-02-06T17:39:06.397Z,-0.95
2018-02-06T17:41:32.175Z,-0.90
2018-02-06T17:43:57.963Z,-0.80
2018-02-06T17:46:23.758Z,-0.88
2018-02-06T17:48:49.557Z,-0.90
2018-02-06T17:51:15.343Z,-0.94
2018-02-06T17:53:41.394Z,-0.95
2018-02-06T17:56:07.204Z,-1.07
2018-02-06T17:58:32.989Z,-0.94
2018-02-06T18:00:59.114Z,-1.03
2018-02-06T18:03:24.904Z,-1.05
2018-02-06T18:05:50.682Z,-0.95
2018-02-06T18:08:16.507Z,-1.05
2018-02-06T18:10:42.347Z,-1.12
2018-02-06T18:13:08.137Z,-1.04
2018-02-06T18:15:33.954Z,-0.96
2018-02-06T18:17:59.740Z,-1.07
2018-02-06T18:20:25.518Z,-1.12
2018-02-06T18:22:51.306Z,-1.09
2018-02-06T18:25:17.102Z,-1.19
2018-02-06T18:27:42.895Z,-1.21
2018-02-06T18:30:08.677Z,-1.27
2018-02-06T18:32:34.458Z,-1.12
2018-02-06T18:35:00.470Z,-1.31
2018-02-06T18:37:26.474Z,-1.27
2018-02-06T18:39:52.271Z,-1.32
2018-02-06T18:42:18.075Z,-1.35
2018-02-06T18:44:43.856Z,-1.29
2018-02-06T18:47:09.731Z,-1.34
2018-02-06T18:49:42.512Z,-1.24
2018-02-06T18:52:08.299Z,-1.27
2018-02-06T18:54:34.122Z,-1.29
2018-02-06T18:57:06.880Z,-1.41
2018-02-06T18:59:32.671Z,-1.46
2018-02-06T19:01:58.484Z,-1.56
2018-02-06T19:04:24.275Z,-1.65
2018-02-06T19:06:50.056Z,-1.67
2018-02-06T19:09:15.858Z,-1.67
2018-02-06T19:11:41.643Z,-1.61
2018-02-06T19:14:07.431Z,-1.66
2018-02-06T19:16:33.219Z,-1.67
2018-02-06T19:18:59.056Z,-1.68
2018-02-06T19:21:24.831Z,-1.76
2018-02-06T19:23:50.636Z,-1.84
2018-02-06T19:26:16.465Z,-1.88
2018-02-06T19:28:42.251Z,-1.88
2018-02-06T19:31:08.073Z,-1.91
2018-02-06T19:33:33.831Z,-1.98
2018-02-06T19:35:59.645Z,-1.96
2018-02-06T19:38:25.468Z,-1.95
2018-02-06T19:40:51.558Z,-1.96
2018-02-06T19:43:17.346Z,-2.04
2018-02-06T19:45:43.141Z,-2.12
2018-02-06T19:48:08.967Z,-2.09
2018-02-06T19:50:34.746Z,-2.14
2018-02-06T19:53:00.526Z,-2.06
2018-02-06T19:55:26.320Z,-2.04
2018-02-06T19:57:52.122Z,-1.97
2018-02-06T20:00:17.922Z,-2.04
2018-02-06T20:02:43.723Z,-2.05
2018-02-06T20:05:09.551Z,-2.12
2018-02-06T20:07:35.354Z,-2.01
2018-02-06T20:10:01.151Z,-2.17
2018-02-06T20:12:26.987Z,-2.20
2018-02-06T20:14:52.787Z,-2.08
2018-02-06T20:17:18.582Z,-1.99
2018-02-06T20:19:44.377Z,-2.05
2018-02-06T20:22:10.160Z,-2.05
2018-02-06T20:24:35.946Z,-2.00
2018-02-06T20:27:01.744Z,-1.97
2018-02-06T20:29:27.540Z,-1.84
2018-02-06T20:31:53.314Z,-1.83
2018-02-06T20:34:19.108Z,-1.92
2018-02-06T20:36:44.961Z,-2.14
2018-02-06T20:39:10.743Z,-2.21
2018-02-06T20:41:36.530Z,-2.20
2018-02-06T20:44:02.354Z,-2.27
2018-02-06T20:46:28.130Z,-2.16
2018-02-06T20:48:53.919Z,-2.09
2018-02-06T20:51:19.690Z,-2.20
2018-02-06T20:53:45.507Z,-2.35
2018-02-06T20:56:11.300Z,-2.40
2018-02-06T20:58:37.093Z,-2.43
2018-02-06T21:01:02.934Z,-2.53
2018-02-06T21:03:28.719Z,-2.54
2018-02-06T21:05:54.519Z,-2.58
2018-02-06T21:08:20.354Z,-2.53
2018-02-06T21:10:46.155Z,-2.46
2018-02-06T21:13:11.951Z,-2.51
2018-02-06T21:15:37.744Z,-2.50
2018-02-06T21:18:03.539Z,-2.60
2018-02-06T21:20:29.607Z,-2.53
2018-02-06T21:22:55.402Z,-2.48
2018-02-06T21:25:21.184Z,-2.51
2018-02-06T21:27:46.990Z,-2.58
2018-02-06T21:30:12.790Z,-2.57
2018-02-06T21:32:38.615Z,-2.58
2018-02-06T21:35:04.424Z,-2.55
2018-02-06T21:37:30.211Z,-2.46
2018-02-06T21:39:56.005Z,-2.55
2018-02-06T21:42:21.814Z,-2.50
2018-02-06T21:44:47.609Z,-2.44
2018-02-06T21:47:13.394Z,-2.46
2018-02-06T21:49:39.189Z,-2.54
2018-02-06T21:52:05.022Z,-2.66
2018-02-06T21:54:30.828Z,-2.58
2018-02-06T21:56:56.607Z,-2.62
2018-02-06T21:59:22.402Z,-2.67
2018-02-06T22:01:48.190Z,-2.71
2018-02-06T22:04:13.987Z,-2.67
2018-02-06T22:06:39.790Z,-2.60
2018-02-06T22:09:05.581Z,-2.68
2018-02-06T22:11:31.358Z,-2.76
2018-02-06T22:13:57.150Z,-2.77
2018-02-06T22:16:22.947Z,-0.24
2018-02-06T22:18:48.727Z,0.44
2018-02-06T22:21:14.511Z,0.42
2018-02-06T22:23:40.300Z,0.53
2018-02-06T22:26:06.113Z,0.68
2018-02-06T22:28:31.890Z,0.75
2018-02-06T22:30:57.679Z,-0.65
2018-02-06T22:33:23.662Z,-0.64
2018-02-06T22:35:49.454Z,-1.04
2018-02-06T22:38:15.231Z,-0.17
2018-02-06T22:40:41.047Z,1.31
2018-02-06T22:43:06.850Z,0.93
2018-02-06T22:45:32.651Z,-1.09
2018-02-06T22:47:58.446Z,-1.95
2018-02-06T22:50:24.262Z,-2.30
2018-02-06T22:52:50.055Z,-2.43
2018-02-06T22:55:15.842Z,-2.81
2018-02-06T22:57:41.664Z,-2.99
2018-02-06T23:00:07.449Z,-3.06
2018-02-06T23:02:33.238Z,-3.08
2018-02-06T23:04:59.039Z,-2.96
2018-02-06T23:07:24.828Z,-3.08
2018-02-06T23:09:50.629Z,-3.28
2018-02-06T23:12:16.463Z,-3.31
2018-02-06T23:14:42.250Z,-3.25
2018-02-06T23:17:08.026Z,-3.41
2018-02-06T23:19:33.843Z,-3.45
2018-02-06T23:21:59.631Z,-3.58
2018-02-06T23:24:25.399Z,-3.39
2018-02-06T23:26:51.219Z,-3.36
2018-02-06T23:29:17.012Z,-3.35
2018-02-06T23:31:42.801Z,-3.48
2018-02-06T23:34:08.616Z,-3.72
2018-02-06T23:36:34.388Z,-3.70
2018-02-06T23:39:00.176Z,-3.77
2018-02-06T23:41:25.978Z,-3.79
2018-02-06T23:43:51.804Z,-3.76
2018-02-06T23:46:17.595Z,-3.74
2018-02-06T23:48:43.399Z,-3.65
2018-02-06T23:51:09.220Z,-3.76
2018-02-06T23:53:35.036Z,-3.80
2018-02-06T23:56:00.883Z,-3.84
2018-02-06T23:58:26.670Z,-3.64
